createdAt,value
2023-04-29T00:00:33.259Z,99.90
2023-04-29T00:03:55.161Z,99.90
2023-04-29T00:07:16.641Z,99.90
2023-04-29T00:10:39.535Z,99.90
2023-04-29T00:14:02.378Z,99.90
2023-04-29T00:17:23.937Z,99.90
2023-04-29T00:20:45.356Z,99.90
2023-04-29T00:24:07.563Z,99.90
2023-04-29T00:27:29.119Z,99.90
2023-04-29T00:30:51.842Z,99.90
2023-04-29T00:34:13.092Z,99.90
2023-04-29T00:37:34.529Z,99.90
2023-04-29T00:40:56.703Z,99.90
2023-04-29T00:44:18.164Z,99.90
2023-04-29T00:47:40.886Z,99.90
2023-04-29T00:51:02.774Z,99.90
2023-04-29T00:54:24.385Z,99.90
2023-04-29T00:57:48.213Z,99.90
2023-04-29T01:01:09.982Z,99.90
2023-04-29T01:04:32.678Z,99.90
2023-04-29T01:08:05.439Z,99.90
2023-04-29T01:11:35.648Z,99.90
2023-04-29T01:15:11.741Z,99.90
2023-04-29T01:18:37.642Z,99.90
2023-04-29T01:22:00.161Z,99.90
2023-04-29T01:25:22.938Z,99.90
2023-04-29T01:28:52.084Z,99.90
2023-04-29T01:32:18.452Z,99.90
2023-04-29T01:35:51.629Z,99.90
2023-04-29T01:39:16.342Z,99.90
2023-04-29T01:42:43.115Z,99.90
2023-04-29T01:46:07.311Z,99.90
2023-04-29T01:49:29.808Z,99.90
2023-04-29T01:52:51.195Z,99.90
2023-04-29T01:56:12.582Z,99.90
2023-04-29T01:59:36.362Z,99.90
2023-04-29T02:02:58.031Z,99.90
2023-04-29T02:06:19.533Z,99.90
2023-04-29T02:09:40.994Z,99.90
2023-04-29T02:13:02.710Z,99.90
2023-04-29T02:16:25.487Z,99.90
2023-04-29T02:19:46.876Z,99.90
2023-04-29T02:23:08.421Z,99.90
2023-04-29T02:26:29.910Z,99.90
2023-04-29T02:29:51.904Z,99.90
2023-04-29T02:33:14.879Z,99.90
2023-04-29T02:36:36.374Z,99.90
2023-04-29T02:39:57.882Z,99.90
2023-04-29T02:43:19.572Z,99.90
2023-04-29T02:46:45.285Z,99.90
2023-04-29T02:50:09.022Z,99.90
2023-04-29T02:53:30.592Z,99.90
2023-04-29T02:56:51.985Z,99.90
2023-04-29T03:00:13.852Z,99.90
2023-04-29T03:03:35.345Z,99.90
2023-04-29T03:06:58.270Z,99.90
2023-04-29T03:10:19.754Z,99.90
2023-04-29T03:13:41.027Z,99.90
2023-04-29T03:17:02.764Z,99.90
2023-04-29T03:20:24.722Z,99.90
2023-04-29T03:23:47.483Z,99.90
2023-04-29T03:27:09.176Z,99.90
2023-04-29T03:30:31.730Z,99.90
2023-04-29T03:33:53.531Z,99.90
2023-04-29T03:37:16.436Z,99.90
2023-04-29T03:40:39.902Z,99.90
2023-04-29T03:44:01.453Z,99.90
2023-04-29T03:47:22.726Z,99.90
2023-04-29T03:50:43.891Z,99.90
2023-04-29T03:54:05.359Z,99.90
2023-04-29T03:57:28.073Z,99.90
2023-04-29T04:00:49.488Z,99.90
2023-04-29T04:04:11.220Z,99.90
2023-04-29T04:07:32.933Z,99.90
2023-04-29T04:10:54.298Z,99.90
2023-04-29T04:14:16.954Z,99.90
2023-04-29T04:17:38.365Z,99.90
2023-04-29T04:21:05.834Z,99.90
2023-04-29T04:24:27.264Z,99.90
2023-04-29T04:27:48.735Z,99.90
2023-04-29T04:31:11.357Z,99.90
2023-04-29T04:34:32.872Z,99.90
2023-04-29T04:37:54.595Z,99.90
2023-04-29T04:41:16.082Z,99.90
2023-04-29T04:44:37.533Z,99.90
2023-04-29T04:48:00.189Z,99.90
2023-04-29T04:51:21.870Z,99.90
2023-04-29T04:54:47.157Z,99.90
2023-04-29T04:58:08.388Z,99.90
2023-04-29T05:01:29.807Z,99.90
2023-04-29T05:04:52.614Z,99.90
2023-04-29T05:08:13.926Z,99.90
2023-04-29T05:11:35.572Z,99.90
2023-04-29T05:14:56.789Z,99.90
2023-04-29T05:18:18.384Z,99.90
2023-04-29T05:21:42.057Z,99.90
2023-04-29T05:25:03.717Z,99.90
2023-04-29T05:28:27.572Z,99.90
2023-04-29T05:31:50.130Z,99.90
2023-04-29T05:35:11.536Z,99.90
2023-04-29T05:38:34.465Z,99.90
2023-04-29T05:41:56.311Z,99.90
2023-04-29T05:45:18.028Z,99.90
2023-04-29T05:48:39.457Z,99.90
2023-04-29T05:52:04.081Z,99.90
2023-04-29T05:55:26.658Z,99.90
2023-04-29T05:58:48.000Z,99.90
2023-04-29T06:02:10.879Z,99.90
2023-04-29T06:05:32.562Z,99.90
2023-04-29T06:08:54.030Z,99.90
2023-04-29T06:12:17.461Z,99.90
2023-04-29T06:15:38.950Z,99.90
2023-04-29T06:19:00.480Z,99.90
2023-04-29T06:22:22.234Z,99.90
2023-04-29T06:25:44.039Z,99.90
2023-04-29T06:29:06.924Z,99.90
2023-04-29T06:32:28.192Z,99.90
2023-04-29T06:35:49.644Z,99.90
2023-04-29T06:39:11.246Z,99.90
2023-04-29T06:42:32.537Z,99.90
2023-04-29T06:45:55.151Z,99.90
2023-04-29T06:49:16.196Z,99.90
2023-04-29T06:52:37.561Z,99.90
2023-04-29T06:55:59.013Z,99.90
2023-04-29T06:59:20.630Z,99.90
2023-04-29T07:02:43.587Z,99.90
2023-04-29T07:06:04.862Z,99.90
2023-04-29T07:09:27.519Z,99.90
2023-04-29T07:12:49.069Z,99.90
2023-04-29T07:16:17.058Z,99.90
2023-04-29T07:19:39.790Z,99.90
2023-04-29T07:23:00.988Z,99.90
2023-04-29T07:26:22.679Z,99.90
2023-04-29T07:29:44.170Z,99.90
2023-04-29T07:33:05.683Z,99.90
2023-04-29T07:36:28.656Z,99.90
2023-04-29T07:39:49.771Z,99.90
2023-04-29T07:43:11.550Z,99.90
2023-04-29T07:46:33.085Z,99.90
2023-04-29T07:49:54.472Z,99.90
2023-04-29T07:53:18.047Z,99.90
2023-04-29T07:56:39.322Z,99.90
2023-04-29T08:00:00.897Z,99.90
2023-04-29T08:03:22.776Z,99.90
2023-04-29T08:06:44.927Z,99.90
2023-04-29T08:10:09.157Z,99.90
2023-04-29T08:13:30.509Z,99.90
2023-04-29T08:16:52.002Z,99.90
2023-04-29T08:20:15.082Z,99.90
2023-04-29T08:23:36.465Z,99.90
2023-04-29T08:26:59.163Z,99.80
2023-04-29T08:30:20.394Z,99.90
2023-04-29T08:33:42.244Z,99.90
2023-04-29T08:37:04.037Z,99.90
2023-04-29T08:40:25.291Z,97.60
2023-04-29T08:43:48.489Z,97.00
2023-04-29T08:47:10.099Z,94.50
2023-04-29T08:50:32.277Z,96.10
2023-04-29T08:53:53.760Z,95.30
2023-04-29T08:57:15.459Z,95.90
2023-04-29T09:00:39.327Z,96.10
2023-04-29T09:04:11.056Z,96.00
2023-04-29T09:07:33.935Z,94.80
2023-04-29T09:10:56.499Z,97.80
2023-04-29T09:14:18.091Z,99.90
2023-04-29T09:17:42.946Z,99.90
2023-04-29T09:21:14.384Z,99.90
2023-04-29T09:24:35.835Z,99.90
2023-04-29T09:27:57.583Z,99.40
2023-04-29T09:31:28.924Z,99.40
2023-04-29T09:34:52.224Z,99.90
2023-04-29T09:38:14.854Z,97.60
2023-04-29T09:41:36.132Z,99.40
2023-04-29T09:44:57.503Z,99.90
2023-04-29T09:48:19.130Z,99.90
2023-04-29T09:51:54.444Z,99.90
2023-04-29T09:55:17.265Z,99.90
2023-04-29T09:58:39.105Z,99.90
2023-04-29T10:02:00.678Z,97.70
2023-04-29T10:05:23.435Z,95.80
2023-04-29T10:08:48.701Z,93.00
2023-04-29T10:12:10.990Z,90.80
2023-04-29T10:15:42.978Z,87.10
2023-04-29T10:19:08.706Z,86.00
2023-04-29T10:22:34.586Z,81.10
2023-04-29T10:25:59.988Z,77.20
2023-04-29T10:29:23.338Z,74.10
2023-04-29T10:32:51.169Z,69.10
2023-04-29T10:36:14.934Z,68.70
2023-04-29T10:39:43.761Z,68.70
2023-04-29T10:43:06.734Z,69.90
2023-04-29T10:46:28.471Z,71.30
2023-04-29T10:50:06.182Z,74.00
2023-04-29T10:53:28.723Z,71.70
2023-04-29T10:56:51.343Z,68.10
2023-04-29T11:00:23.241Z,70.30
2023-04-29T11:03:50.620Z,70.90
2023-04-29T11:07:28.070Z,66.40
2023-04-29T11:10:53.161Z,68.30
2023-04-29T11:14:15.985Z,71.70
2023-04-29T11:17:39.388Z,71.70
2023-04-29T11:21:13.920Z,68.30
2023-04-29T11:24:36.378Z,67.30
2023-04-29T11:27:59.476Z,64.70
2023-04-29T11:31:21.252Z,65.20
2023-04-29T11:34:44.004Z,64.60
2023-04-29T11:38:05.915Z,63.90
2023-04-29T11:41:27.629Z,64.40
2023-04-29T11:44:52.335Z,66.10
2023-04-29T11:48:19.795Z,64.20
2023-04-29T11:51:42.749Z,59.60
2023-04-29T11:55:04.336Z,60.40
2023-04-29T11:58:26.014Z,58.80
2023-04-29T12:01:47.705Z,60.10
2023-04-29T12:05:09.953Z,60.60
2023-04-29T12:08:34.020Z,60.10
2023-04-29T12:11:55.419Z,61.20
2023-04-29T12:15:17.219Z,63.00
2023-04-29T12:18:38.936Z,62.20
2023-04-29T12:22:00.826Z,60.30
2023-04-29T12:25:26.194Z,61.90
2023-04-29T12:28:47.824Z,65.40
2023-04-29T12:32:13.524Z,65.50
2023-04-29T12:35:36.891Z,59.40
2023-04-29T12:39:00.318Z,57.60
2023-04-29T12:42:22.828Z,54.30
2023-04-29T12:45:43.952Z,52.60
2023-04-29T12:49:06.592Z,51.60
2023-04-29T12:52:28.009Z,51.90
2023-04-29T12:55:49.826Z,55.20
2023-04-29T12:59:12.589Z,57.20
2023-04-29T13:02:33.904Z,59.50
2023-04-29T13:05:55.444Z,61.30
2023-04-29T13:09:18.963Z,61.90
2023-04-29T13:12:40.832Z,64.20
2023-04-29T13:16:03.452Z,64.80
2023-04-29T13:19:43.483Z,66.10
2023-04-29T13:23:06.389Z,67.30
2023-04-29T13:26:27.872Z,69.00
2023-04-29T13:29:49.068Z,70.00
2023-04-29T13:33:13.576Z,71.10
2023-04-29T13:36:35.059Z,72.60
2023-04-29T13:39:57.636Z,74.50
2023-04-29T13:43:30.040Z,75.10
2023-04-29T13:46:58.532Z,77.40
2023-04-29T13:50:50.628Z,77.40
2023-04-29T13:54:37.438Z,78.30
2023-04-29T14:01:26.044Z,80.20
2023-04-29T14:04:50.220Z,80.60
2023-04-29T14:08:12.999Z,81.80
2023-04-29T14:11:36.602Z,81.90
2023-04-29T14:15:00.137Z,82.80
2023-04-29T14:18:22.212Z,82.50
2023-04-29T14:21:43.882Z,83.80
2023-04-29T14:25:08.383Z,84.50
2023-04-29T14:28:29.857Z,85.30
2023-04-29T14:31:51.543Z,86.80
2023-04-29T14:35:13.192Z,90.20
2023-04-29T14:38:34.412Z,91.20
2023-04-29T14:41:57.252Z,91.00
2023-04-29T14:45:18.664Z,91.50
2023-04-29T14:48:40.222Z,91.90
2023-04-29T14:52:02.002Z,91.90
2023-04-29T14:55:23.361Z,92.10
2023-04-29T14:58:46.202Z,92.30
2023-04-29T15:02:07.991Z,93.40
2023-04-29T15:05:30.419Z,92.90
2023-04-29T15:08:52.323Z,94.90
2023-04-29T15:12:14.329Z,97.00
2023-04-29T15:15:37.247Z,98.80
2023-04-29T15:18:59.177Z,99.90
2023-04-29T15:22:20.663Z,99.90
2023-04-29T15:25:42.164Z,99.90
2023-04-29T15:29:03.992Z,99.90
2023-04-29T15:32:31.468Z,99.90
2023-04-29T15:35:53.974Z,99.90
2023-04-29T15:39:16.545Z,99.90
2023-04-29T15:42:38.103Z,99.90
2023-04-29T15:46:00.146Z,99.90
2023-04-29T15:49:24.425Z,99.90
2023-04-29T15:52:46.449Z,99.90
2023-04-29T15:56:07.748Z,99.90
2023-04-29T15:59:29.467Z,99.90
2023-04-29T16:02:50.939Z,99.90
2023-04-29T16:06:13.825Z,99.90
2023-04-29T16:09:36.169Z,99.90
2023-04-29T16:12:57.728Z,99.90
2023-04-29T16:16:19.412Z,99.90
2023-04-29T16:19:41.172Z,99.90
2023-04-29T16:23:03.735Z,99.90
2023-04-29T16:26:26.178Z,99.90
2023-04-29T16:29:47.736Z,99.90
2023-04-29T16:33:09.157Z,99.90
2023-04-29T16:36:30.497Z,99.90
2023-04-29T16:39:53.333Z,99.90
2023-04-29T16:43:15.286Z,99.90
2023-04-29T16:46:36.591Z,99.90
2023-04-29T16:49:58.060Z,99.90
2023-04-29T16:53:19.572Z,99.90
2023-04-29T16:56:42.381Z,99.90
2023-04-29T17:00:04.170Z,99.90
2023-04-29T17:03:25.467Z,99.90
2023-04-29T17:06:47.173Z,99.90
2023-04-29T17:10:09.606Z,99.90
2023-04-29T17:13:32.184Z,99.90
2023-04-29T17:16:53.706Z,99.90
2023-04-29T17:20:15.137Z,99.90
2023-04-29T17:23:37.480Z,99.90
2023-04-29T17:26:59.744Z,99.90
2023-04-29T17:30:22.459Z,99.90
2023-04-29T17:33:54.680Z,99.90
2023-04-29T17:37:17.503Z,99.90
2023-04-29T17:40:38.805Z,99.90
2023-04-29T17:44:00.233Z,99.90
2023-04-29T17:47:23.319Z,99.90
2023-04-29T17:50:44.783Z,99.90
2023-04-29T17:54:07.673Z,99.90
2023-04-29T17:57:29.559Z,99.90
2023-04-29T18:00:52.158Z,99.90
2023-04-29T18:04:15.056Z,99.90
2023-04-29T18:07:36.276Z,99.90
2023-04-29T18:10:57.461Z,99.90
2023-04-29T18:14:19.092Z,99.90
2023-04-29T18:17:40.693Z,99.90
2023-04-29T18:21:03.556Z,99.90
2023-04-29T18:24:26.015Z,99.90
2023-04-29T18:27:47.987Z,99.90
2023-04-29T18:31:09.538Z,99.90
2023-04-29T18:34:31.149Z,99.90
2023-04-29T18:37:53.589Z,99.90
2023-04-29T18:41:14.975Z,99.90
2023-04-29T18:44:36.473Z,99.90
2023-04-29T18:47:57.882Z,99.90
2023-04-29T18:51:19.372Z,99.90
2023-04-29T18:54:42.316Z,99.90
2023-04-29T18:58:03.777Z,99.90
2023-04-29T19:01:25.781Z,99.90
2023-04-29T19:04:47.094Z,99.90
2023-04-29T19:08:08.423Z,99.90
2023-04-29T19:11:31.469Z,99.90
2023-04-29T19:14:52.799Z,99.90
2023-04-29T19:18:14.850Z,99.90
2023-04-29T19:21:37.286Z,99.90
2023-04-29T19:24:58.533Z,99.90
2023-04-29T19:28:21.418Z,99.90
2023-04-29T19:31:42.836Z,99.90
2023-04-29T19:35:04.550Z,99.90
2023-04-29T19:38:26.001Z,99.90
2023-04-29T19:41:47.454Z,99.90
2023-04-29T19:45:12.462Z,99.90
2023-04-29T19:48:34.245Z,99.90
2023-04-29T19:51:56.003Z,99.90
2023-04-29T19:55:17.886Z,99.90
2023-04-29T19:58:39.356Z,99.90
2023-04-29T20:02:02.257Z,99.90
2023-04-29T20:05:23.893Z,99.90
2023-04-29T20:08:45.451Z,99.90
2023-04-29T20:12:07.009Z,99.90
2023-04-29T20:15:28.391Z,99.90
2023-04-29T20:18:50.853Z,99.90
2023-04-29T20:22:13.293Z,99.90
2023-04-29T20:25:34.912Z,99.90
2023-04-29T20:28:56.432Z,99.90
2023-04-29T20:32:18.361Z,99.90
2023-04-29T20:35:41.319Z,99.90
2023-04-29T20:39:02.748Z,99.90
2023-04-29T20:42:24.338Z,99.90
2023-04-29T20:45:45.947Z,99.90
2023-04-29T20:49:07.362Z,99.90
2023-04-29T20:52:30.508Z,99.90
2023-04-29T20:55:51.684Z,99.90
2023-04-29T20:59:12.819Z,99.90
2023-04-29T21:02:34.304Z,99.90
2023-04-29T21:05:56.341Z,99.90
2023-04-29T21:09:19.011Z,99.90
2023-04-29T21:12:40.636Z,99.90
2023-04-29T21:16:02.245Z,99.90
2023-04-29T21:19:23.801Z,99.90
2023-04-29T21:22:45.790Z,99.90
2023-04-29T21:26:08.237Z,99.90
2023-04-29T21:29:29.705Z,99.90
2023-04-29T21:32:51.179Z,99.90
2023-04-29T21:36:13.136Z,99.90
2023-04-29T21:39:34.609Z,99.90
2023-04-29T21:42:58.859Z,99.90
2023-04-29T21:46:21.046Z,99.90
2023-04-29T21:49:42.562Z,99.90
2023-04-29T21:53:03.665Z,99.90
2023-04-29T21:56:25.122Z,99.90
2023-04-29T21:59:48.979Z,99.90
2023-04-29T22:03:10.905Z,99.90
2023-04-29T22:06:33.369Z,99.90
2023-04-29T22:09:54.757Z,99.90
2023-04-29T22:13:16.652Z,99.90
2023-04-29T22:16:39.368Z,99.90
2023-04-29T22:20:00.681Z,99.90
2023-04-29T22:23:22.589Z,99.90
2023-04-29T22:26:44.073Z,99.90
2023-04-29T22:30:06.544Z,99.90
2023-04-29T22:33:29.834Z,99.90
2023-04-29T22:36:50.917Z,99.90
2023-04-29T22:40:13.654Z,99.90
2023-04-29T22:43:34.872Z,99.90
2023-04-29T22:46:56.516Z,99.90
2023-04-29T22:50:19.634Z,99.90
2023-04-29T22:53:40.836Z,99.90
2023-04-29T22:57:03.489Z,99.90
2023-04-29T23:00:24.726Z,99.90
2023-04-29T23:03:46.161Z,99.90
2023-04-29T23:07:08.955Z,99.90
2023-04-29T23:10:32.626Z,99.90
2023-04-29T23:13:54.643Z,99.90
2023-04-29T23:17:16.085Z,99.90
2023-04-29T23:20:38.002Z,99.90
2023-04-29T23:24:00.715Z,99.90
2023-04-29T23:27:22.039Z,99.90
2023-04-29T23:30:43.791Z,99.90
2023-04-29T23:34:05.393Z,99.90
2023-04-29T23:37:26.508Z,99.90
2023-04-29T23:40:49.266Z,99.90
2023-04-29T23:44:10.797Z,99.90
2023-04-29T23:47:32.300Z,99.90
2023-04-29T23:50:53.684Z,99.90
2023-04-29T23:54:15.018Z,99.90
2023-04-29T23:57:37.846Z,99.90
